Pagrindinis puslapis
METAR-TAF:

METAR-TAF

Oro uostai :

Oro pajėgų bazė

Tulnas, Austrija

platuma: 48-19N, ilguma: 016-07E, Aukštis: 175 m

METAR: trūkstamas

Laikas: 18:38 (17:38 UTC)

Prognozė

Ataskaita buvo paskelbta 3 valandos ir 23 minutes, ne 14:15 UTC
Prognozė galioja nuo 29 metu 15 UTC su 29 metu 24 UTC
Vėjas 12 kt iš Rytų/Pietryčių
Matomumas 10 km arba daugiau
Mažai debesys ne aukštis 3000 ft
Su prošvaistėmis ne aukštis 25000 ft
Tikimybė 40% :
Laikinai
nuo 29 metu 15 UTC su 29 metu 21 UTC
Vėjas 15 kt iš Pietryčių su gūsio iki 25 kt

TAF: LOXT 291415Z 2915/2924 12012KT 9999 FEW030 BKN250 PROB40 TEMPO 2915/2921 14015G25KT

Orai ataskaitas ir orų prognozės (METAR, TAF).

turimą stotys yra geltonos ir raudonos taškus žemėlapyje.

Perkelti pele per norėdami pamatyti stoties vardą.

Tada spustelėkite, norėdami matyti oro stebėjimo ir prognozės.

Norėdami pakeisti žemėlapį: spustelėkite ant žalios mygtukų su juodo kryžiaus žemyn,; žalią mygtuką su brūkšneliu, jei norite nutolinti; arba žalių rodyklių gretimoms žemėlapius.


METAR-TAF: